sensor_id;sensor_type;location;lat;lon;timestamp;P1;durP1;ratioP1;P2;durP2;ratioP2
45909;SDS011;31622;55.416;37.840;2022-10-16T00:02:02;3.95;;;2.72;;
45909;SDS011;31622;55.416;37.840;2022-10-16T00:04:27;4.53;;;2.70;;
45909;SDS011;31622;55.416;37.840;2022-10-16T00:06:53;4.95;;;2.60;;
45909;SDS011;31622;55.416;37.840;2022-10-16T00:09:18;3.88;;;2.60;;
45909;SDS011;31622;55.416;37.840;2022-10-16T00:11:44;4.53;;;2.50;;
45909;SDS011;31622;55.416;37.840;2022-10-16T00:14:11;3.45;;;2.55;;
45909;SDS011;31622;55.416;37.840;2022-10-16T00:16:38;4.85;;;2.92;;
45909;SDS011;31622;55.416;37.840;2022-10-16T00:19:04;4.50;;;2.78;;
45909;SDS011;31622;55.416;37.840;2022-10-16T00:21:31;3.83;;;2.55;;
45909;SDS011;31622;55.416;37.840;2022-10-16T00:23:58;4.03;;;2.95;;
45909;SDS011;31622;55.416;37.840;2022-10-16T00:26:27;4.35;;;2.83;;
45909;SDS011;31622;55.416;37.840;2022-10-16T00:28:54;4.60;;;2.70;;
45909;SDS011;31622;55.416;37.840;2022-10-16T00:31:20;6.38;;;2.83;;
45909;SDS011;31622;55.416;37.840;2022-10-16T00:33:47;20.13;;;3.13;;
45909;SDS011;31622;55.416;37.840;2022-10-16T00:36:14;6.78;;;3.05;;
45909;SDS011;31622;55.416;37.840;2022-10-16T00:38:41;5.47;;;2.80;;
45909;SDS011;31622;55.416;37.840;2022-10-16T00:41:09;3.80;;;2.70;;
45909;SDS011;31622;55.416;37.840;2022-10-16T00:43:39;8.50;;;2.97;;
45909;SDS011;31622;55.416;37.840;2022-10-16T00:46:18;4.40;;;2.65;;
45909;SDS011;31622;55.416;37.840;2022-10-16T00:48:48;3.90;;;2.67;;
45909;SDS011;31622;55.416;37.840;2022-10-16T00:51:37;4.40;;;3.00;;
45909;SDS011;31622;55.416;37.840;2022-10-16T00:54:06;4.32;;;2.80;;
45909;SDS011;31622;55.416;37.840;2022-10-16T00:56:34;4.18;;;2.70;;
45909;SDS011;31622;55.416;37.840;2022-10-16T00:59:01;3.88;;;2.58;;
45909;SDS011;31622;55.416;37.840;2022-10-16T01:01:29;3.88;;;2.40;;
45909;SDS011;31622;55.416;37.840;2022-10-16T01:03:54;3.67;;;2.63;;
45909;SDS011;31622;55.416;37.840;2022-10-16T01:14:42;3.67;;;2.30;;
45909;SDS011;31622;55.416;37.840;2022-10-16T01:17:15;3.30;;;2.45;;
45909;SDS011;31622;55.416;37.840;2022-10-16T01:20:11;3.92;;;2.60;;
45909;SDS011;31622;55.416;37.840;2022-10-16T01:22:47;4.05;;;2.75;;
45909;SDS011;31622;55.416;37.840;2022-10-16T01:25:20;4.07;;;2.70;;
45909;SDS011;31622;55.416;37.840;2022-10-16T01:27:51;4.45;;;3.05;;
45909;SDS011;31622;55.416;37.840;2022-10-16T01:30:18;3.42;;;2.22;;
45909;SDS011;31622;55.416;37.840;2022-10-16T01:32:52;4.63;;;2.50;;
45909;SDS011;31622;55.416;37.840;2022-10-16T01:35:23;3.92;;;2.60;;
45909;SDS011;31622;55.416;37.840;2022-10-16T01:38:00;3.92;;;2.33;;
45909;SDS011;31622;55.416;37.840;2022-10-16T01:40:27;4.40;;;2.95;;
45909;SDS011;31622;55.416;37.840;2022-10-16T01:43:00;3.85;;;2.35;;
45909;SDS011;31622;55.416;37.840;2022-10-16T01:45:28;4.43;;;2.15;;
45909;SDS011;31622;55.416;37.840;2022-10-16T01:47:55;3.97;;;2.25;;
45909;SDS011;31622;55.416;37.840;2022-10-16T01:50:21;2.90;;;2.25;;
45909;SDS011;31622;55.416;37.840;2022-10-16T01:52:49;4.75;;;2.30;;
45909;SDS011;31622;55.416;37.840;2022-10-16T01:55:24;3.70;;;2.40;;
45909;SDS011;31622;55.416;37.840;2022-10-16T01:57:54;5.03;;;2.35;;
45909;SDS011;31622;55.416;37.840;2022-10-16T02:00:20;3.92;;;2.33;;
45909;SDS011;31622;55.416;37.840;2022-10-16T02:02:48;3.88;;;2.30;;
45909;SDS011;31622;55.416;37.840;2022-10-16T02:07:55;3.63;;;1.95;;
45909;SDS011;31622;55.416;37.840;2022-10-16T02:10:21;4.68;;;2.20;;
45909;SDS011;31622;55.416;37.840;2022-10-16T02:12:50;4.05;;;2.10;;
45909;SDS011;31622;55.416;37.840;2022-10-16T02:15:21;3.17;;;1.98;;
45909;SDS011;31622;55.416;37.840;2022-10-16T02:17:46;3.30;;;2.05;;
45909;SDS011;31622;55.416;37.840;2022-10-16T02:20:12;3.40;;;2.30;;
45909;SDS011;31622;55.416;37.840;2022-10-16T02:22:39;3.35;;;2.10;;
45909;SDS011;31622;55.416;37.840;2022-10-16T02:25:10;3.22;;;2.20;;
45909;SDS011;31622;55.416;37.840;2022-10-16T02:28:40;3.58;;;2.00;;
45909;SDS011;31622;55.416;37.840;2022-10-16T02:31:03;3.97;;;2.00;;
45909;SDS011;31622;55.416;37.840;2022-10-16T02:33:30;3.50;;;2.17;;
45909;SDS011;31622;55.416;37.840;2022-10-16T02:35:57;3.90;;;2.33;;
45909;SDS011;31622;55.416;37.840;2022-10-16T02:38:23;2.78;;;2.08;;
45909;SDS011;31622;55.416;37.840;2022-10-16T02:40:50;3.30;;;2.17;;
45909;SDS011;31622;55.416;37.840;2022-10-16T02:43:16;3.00;;;2.10;;
45909;SDS011;31622;55.416;37.840;2022-10-16T02:45:41;3.83;;;2.53;;
45909;SDS011;31622;55.416;37.840;2022-10-16T02:48:07;3.95;;;2.17;;
45909;SDS011;31622;55.416;37.840;2022-10-16T02:50:33;3.72;;;2.20;;
45909;SDS011;31622;55.416;37.840;2022-10-16T02:52:59;3.65;;;2.00;;
45909;SDS011;31622;55.416;37.840;2022-10-16T02:55:24;4.72;;;2.75;;
45909;SDS011;31622;55.416;37.840;2022-10-16T02:57:50;3.90;;;2.30;;
45909;SDS011;31622;55.416;37.840;2022-10-16T03:00:16;3.60;;;2.20;;
45909;SDS011;31622;55.416;37.840;2022-10-16T03:02:42;3.78;;;2.22;;
45909;SDS011;31622;55.416;37.840;2022-10-16T03:05:08;3.75;;;2.30;;
45909;SDS011;31622;55.416;37.840;2022-10-16T03:07:34;4.05;;;2.15;;
45909;SDS011;31622;55.416;37.840;2022-10-16T03:10:00;3.95;;;2.30;;
45909;SDS011;31622;55.416;37.840;2022-10-16T03:12:29;6.22;;;2.63;;
45909;SDS011;31622;55.416;37.840;2022-10-16T03:14:55;3.13;;;2.40;;
45909;SDS011;31622;55.416;37.840;2022-10-16T03:17:21;4.32;;;2.47;;
45909;SDS011;31622;55.416;37.840;2022-10-16T03:19:47;3.22;;;2.13;;
45909;SDS011;31622;55.416;37.840;2022-10-16T03:22:13;4.60;;;2.85;;
45909;SDS011;31622;55.416;37.840;2022-10-16T03:24:39;3.13;;;2.10;;
45909;SDS011;31622;55.416;37.840;2022-10-16T03:27:04;3.10;;;2.10;;
45909;SDS011;31622;55.416;37.840;2022-10-16T03:29:31;3.13;;;1.90;;
45909;SDS011;31622;55.416;37.840;2022-10-16T03:31:58;3.58;;;2.17;;
45909;SDS011;31622;55.416;37.840;2022-10-16T03:34:23;3.38;;;2.30;;
45909;SDS011;31622;55.416;37.840;2022-10-16T03:36:49;4.45;;;2.63;;
45909;SDS011;31622;55.416;37.840;2022-10-16T03:39:15;3.38;;;2.25;;
45909;SDS011;31622;55.416;37.840;2022-10-16T03:41:41;4.50;;;2.40;;
45909;SDS011;31622;55.416;37.840;2022-10-16T03:44:07;8.63;;;3.25;;
45909;SDS011;31622;55.416;37.840;2022-10-16T03:46:32;3.22;;;2.30;;
45909;SDS011;31622;55.416;37.840;2022-10-16T03:48:58;5.78;;;2.65;;
45909;SDS011;31622;55.416;37.840;2022-10-16T03:51:23;7.22;;;2.38;;
45909;SDS011;31622;55.416;37.840;2022-10-16T03:53:49;4.90;;;2.63;;
45909;SDS011;31622;55.416;37.840;2022-10-16T03:56:15;5.10;;;2.30;;
45909;SDS011;31622;55.416;37.840;2022-10-16T03:58:40;5.53;;;2.78;;
45909;SDS011;31622;55.416;37.840;2022-10-16T04:01:06;5.05;;;2.17;;
45909;SDS011;31622;55.416;37.840;2022-10-16T04:03:32;4.53;;;2.50;;
45909;SDS011;31622;55.416;37.840;2022-10-16T04:05:58;5.03;;;2.50;;
45909;SDS011;31622;55.416;37.840;2022-10-16T04:08:23;5.43;;;2.67;;
45909;SDS011;31622;55.416;37.840;2022-10-16T04:10:49;3.90;;;2.60;;
45909;SDS011;31622;55.416;37.840;2022-10-16T04:13:15;4.03;;;2.25;;
45909;SDS011;31622;55.416;37.840;2022-10-16T04:15:41;5.97;;;2.40;;
45909;SDS011;31622;55.416;37.840;2022-10-16T04:18:06;5.68;;;2.70;;
45909;SDS011;31622;55.416;37.840;2022-10-16T04:20:32;4.07;;;2.47;;
45909;SDS011;31622;55.416;37.840;2022-10-16T04:22:58;5.28;;;2.17;;
45909;SDS011;31622;55.416;37.840;2022-10-16T04:25:24;4.80;;;2.55;;
45909;SDS011;31622;55.416;37.840;2022-10-16T04:27:52;4.65;;;2.65;;
45909;SDS011;31622;55.416;37.840;2022-10-16T04:30:18;3.53;;;2.55;;
45909;SDS011;31622;55.416;37.840;2022-10-16T04:32:47;5.43;;;2.25;;
45909;SDS011;31622;55.416;37.840;2022-10-16T04:35:16;4.75;;;2.20;;
45909;SDS011;31622;55.416;37.840;2022-10-16T04:37:43;3.60;;;2.42;;
45909;SDS011;31622;55.416;37.840;2022-10-16T04:40:09;5.10;;;2.75;;
45909;SDS011;31622;55.416;37.840;2022-10-16T04:42:35;5.00;;;2.95;;
45909;SDS011;31622;55.416;37.840;2022-10-16T04:45:00;6.03;;;3.90;;
45909;SDS011;31622;55.416;37.840;2022-10-16T04:47:26;7.65;;;3.20;;
45909;SDS011;31622;55.416;37.840;2022-10-16T04:49:51;7.18;;;3.38;;
45909;SDS011;31622;55.416;37.840;2022-10-16T04:52:17;8.75;;;3.65;;
45909;SDS011;31622;55.416;37.840;2022-10-16T04:54:44;7.57;;;3.78;;
45909;SDS011;31622;55.416;37.840;2022-10-16T04:57:10;8.77;;;3.35;;
45909;SDS011;31622;55.416;37.840;2022-10-16T04:59:36;6.13;;;3.42;;
45909;SDS011;31622;55.416;37.840;2022-10-16T05:02:02;6.40;;;3.13;;
45909;SDS011;31622;55.416;37.840;2022-10-16T05:04:28;6.80;;;3.20;;
45909;SDS011;31622;55.416;37.840;2022-10-16T05:06:53;7.03;;;3.15;;
45909;SDS011;31622;55.416;37.840;2022-10-16T05:09:19;5.82;;;2.97;;
45909;SDS011;31622;55.416;37.840;2022-10-16T05:11:45;5.45;;;3.30;;
45909;SDS011;31622;55.416;37.840;2022-10-16T05:14:11;5.75;;;2.70;;
45909;SDS011;31622;55.416;37.840;2022-10-16T05:16:37;9.85;;;3.95;;
45909;SDS011;31622;55.416;37.840;2022-10-16T05:19:02;8.68;;;2.88;;
45909;SDS011;31622;55.416;37.840;2022-10-16T05:21:28;7.90;;;2.85;;
45909;SDS011;31622;55.416;37.840;2022-10-16T05:23:53;8.43;;;3.17;;
45909;SDS011;31622;55.416;37.840;2022-10-16T05:26:20;6.07;;;3.13;;
45909;SDS011;31622;55.416;37.840;2022-10-16T05:28:46;6.05;;;2.75;;
45909;SDS011;31622;55.416;37.840;2022-10-16T05:31:11;6.68;;;3.05;;
45909;SDS011;31622;55.416;37.840;2022-10-16T05:33:37;6.63;;;3.10;;
45909;SDS011;31622;55.416;37.840;2022-10-16T05:36:04;7.07;;;3.05;;
45909;SDS011;31622;55.416;37.840;2022-10-16T05:38:32;5.93;;;3.38;;
45909;SDS011;31622;55.416;37.840;2022-10-16T05:40:59;4.47;;;2.58;;
45909;SDS011;31622;55.416;37.840;2022-10-16T05:43:24;5.35;;;2.60;;
45909;SDS011;31622;55.416;37.840;2022-10-16T05:45:58;6.30;;;2.70;;
45909;SDS011;31622;55.416;37.840;2022-10-16T05:48:29;8.30;;;2.70;;
45909;SDS011;31622;55.416;37.840;2022-10-16T05:51:02;5.85;;;2.65;;
45909;SDS011;31622;55.416;37.840;2022-10-16T05:53:30;6.35;;;2.55;;
45909;SDS011;31622;55.416;37.840;2022-10-16T05:55:57;10.32;;;2.80;;
45909;SDS011;31622;55.416;37.840;2022-10-16T05:58:24;8.07;;;2.80;;
45909;SDS011;31622;55.416;37.840;2022-10-16T06:00:53;10.15;;;2.83;;
45909;SDS011;31622;55.416;37.840;2022-10-16T06:03:23;4.70;;;2.85;;
45909;SDS011;31622;55.416;37.840;2022-10-16T06:05:49;6.35;;;2.92;;
45909;SDS011;31622;55.416;37.840;2022-10-16T06:08:15;7.85;;;3.60;;
45909;SDS011;31622;55.416;37.840;2022-10-16T06:10:41;13.73;;;4.88;;
45909;SDS011;31622;55.416;37.840;2022-10-16T06:13:08;14.32;;;5.82;;
45909;SDS011;31622;55.416;37.840;2022-10-16T06:15:33;14.90;;;5.78;;
45909;SDS011;31622;55.416;37.840;2022-10-16T06:17:59;16.60;;;6.97;;
45909;SDS011;31622;55.416;37.840;2022-10-16T06:20:25;13.15;;;7.45;;
45909;SDS011;31622;55.416;37.840;2022-10-16T06:22:51;14.10;;;8.13;;
45909;SDS011;31622;55.416;37.840;2022-10-16T06:25:17;15.48;;;7.63;;
45909;SDS011;31622;55.416;37.840;2022-10-16T06:27:42;17.48;;;8.40;;
45909;SDS011;31622;55.416;37.840;2022-10-16T06:30:08;15.45;;;7.93;;
45909;SDS011;31622;55.416;37.840;2022-10-16T06:32:34;13.40;;;7.80;;
45909;SDS011;31622;55.416;37.840;2022-10-16T06:35:00;16.40;;;7.95;;
45909;SDS011;31622;55.416;37.840;2022-10-16T06:37:26;13.80;;;7.95;;
45909;SDS011;31622;55.416;37.840;2022-10-16T06:39:52;13.43;;;8.07;;
45909;SDS011;31622;55.416;37.840;2022-10-16T06:42:18;13.45;;;7.63;;
45909;SDS011;31622;55.416;37.840;2022-10-16T06:44:44;13.32;;;7.45;;
45909;SDS011;31622;55.416;37.840;2022-10-16T06:47:09;18.73;;;7.18;;
45909;SDS011;31622;55.416;37.840;2022-10-16T06:49:35;15.88;;;6.70;;
45909;SDS011;31622;55.416;37.840;2022-10-16T06:52:01;16.98;;;7.20;;
45909;SDS011;31622;55.416;37.840;2022-10-16T06:54:27;17.02;;;6.65;;
45909;SDS011;31622;55.416;37.840;2022-10-16T06:56:53;15.88;;;7.00;;
45909;SDS011;31622;55.416;37.840;2022-10-16T06:59:20;12.90;;;6.47;;
45909;SDS011;31622;55.416;37.840;2022-10-16T07:01:46;12.77;;;6.47;;
45909;SDS011;31622;55.416;37.840;2022-10-16T07:04:12;11.95;;;6.40;;
45909;SDS011;31622;55.416;37.840;2022-10-16T07:06:37;11.95;;;5.70;;
45909;SDS011;31622;55.416;37.840;2022-10-16T07:09:04;13.77;;;5.57;;
45909;SDS011;31622;55.416;37.840;2022-10-16T07:11:31;11.57;;;5.57;;
45909;SDS011;31622;55.416;37.840;2022-10-16T07:13:57;10.68;;;5.45;;
45909;SDS011;31622;55.416;37.840;2022-10-16T07:16:26;17.40;;;4.57;;
45909;SDS011;31622;55.416;37.840;2022-10-16T07:18:53;10.98;;;5.05;;
45909;SDS011;31622;55.416;37.840;2022-10-16T07:21:23;10.77;;;5.45;;
45909;SDS011;31622;55.416;37.840;2022-10-16T07:23:59;14.07;;;5.93;;
45909;SDS011;31622;55.416;37.840;2022-10-16T07:26:26;20.42;;;5.80;;
45909;SDS011;31622;55.416;37.840;2022-10-16T07:28:53;11.77;;;5.50;;
45909;SDS011;31622;55.416;37.840;2022-10-16T07:31:19;12.05;;;5.03;;
45909;SDS011;31622;55.416;37.840;2022-10-16T07:33:46;11.40;;;5.25;;
45909;SDS011;31622;55.416;37.840;2022-10-16T07:36:13;12.07;;;4.90;;
45909;SDS011;31622;55.416;37.840;2022-10-16T07:38:40;12.95;;;5.68;;
45909;SDS011;31622;55.416;37.840;2022-10-16T07:41:07;16.80;;;6.35;;
45909;SDS011;31622;55.416;37.840;2022-10-16T07:43:35;22.33;;;6.38;;
45909;SDS011;31622;55.416;37.840;2022-10-16T07:46:01;16.33;;;6.40;;
45909;SDS011;31622;55.416;37.840;2022-10-16T07:48:27;26.15;;;7.65;;
45909;SDS011;31622;55.416;37.840;2022-10-16T07:50:57;20.48;;;7.30;;
45909;SDS011;31622;55.416;37.840;2022-10-16T07:53:27;21.45;;;7.10;;
45909;SDS011;31622;55.416;37.840;2022-10-16T07:55:56;20.20;;;6.95;;
45909;SDS011;31622;55.416;37.840;2022-10-16T07:58:23;21.25;;;6.10;;
45909;SDS011;31622;55.416;37.840;2022-10-16T08:00:49;19.45;;;6.82;;
45909;SDS011;31622;55.416;37.840;2022-10-16T08:03:15;18.45;;;6.50;;
45909;SDS011;31622;55.416;37.840;2022-10-16T08:05:40;13.60;;;5.38;;
45909;SDS011;31622;55.416;37.840;2022-10-16T08:08:06;16.92;;;6.03;;
45909;SDS011;31622;55.416;37.840;2022-10-16T08:10:32;17.08;;;6.45;;
45909;SDS011;31622;55.416;37.840;2022-10-16T08:12:57;15.55;;;5.57;;
45909;SDS011;31622;55.416;37.840;2022-10-16T08:15:24;16.65;;;5.30;;
45909;SDS011;31622;55.416;37.840;2022-10-16T08:17:55;15.30;;;5.95;;
45909;SDS011;31622;55.416;37.840;2022-10-16T08:20:22;20.10;;;6.63;;
45909;SDS011;31622;55.416;37.840;2022-10-16T08:22:47;14.68;;;6.07;;
45909;SDS011;31622;55.416;37.840;2022-10-16T08:25:13;17.33;;;6.70;;
45909;SDS011;31622;55.416;37.840;2022-10-16T08:27:39;19.85;;;5.85;;
45909;SDS011;31622;55.416;37.840;2022-10-16T08:30:04;18.83;;;5.90;;
45909;SDS011;31622;55.416;37.840;2022-10-16T08:32:31;17.10;;;6.30;;
45909;SDS011;31622;55.416;37.840;2022-10-16T08:34:56;13.70;;;5.85;;
45909;SDS011;31622;55.416;37.840;2022-10-16T08:37:22;16.83;;;5.70;;
45909;SDS011;31622;55.416;37.840;2022-10-16T08:39:47;14.25;;;5.40;;
45909;SDS011;31622;55.416;37.840;2022-10-16T08:50:36;14.00;;;4.93;;
45909;SDS011;31622;55.416;37.840;2022-10-16T08:53:04;12.23;;;4.75;;
45909;SDS011;31622;55.416;37.840;2022-10-16T08:55:38;16.73;;;5.10;;
45909;SDS011;31622;55.416;37.840;2022-10-16T08:58:15;14.43;;;4.65;;
45909;SDS011;31622;55.416;37.840;2022-10-16T09:00:44;21.38;;;4.90;;
45909;SDS011;31622;55.416;37.840;2022-10-16T09:09:18;13.15;;;4.28;;
45909;SDS011;31622;55.416;37.840;2022-10-16T09:14:50;9.05;;;3.80;;
45909;SDS011;31622;55.416;37.840;2022-10-16T09:17:45;9.30;;;3.50;;
45909;SDS011;31622;55.416;37.840;2022-10-16T09:20:19;11.98;;;4.07;;
45909;SDS011;31622;55.416;37.840;2022-10-16T09:25:31;10.88;;;3.60;;
45909;SDS011;31622;55.416;37.840;2022-10-16T09:27:57;7.45;;;3.28;;
45909;SDS011;31622;55.416;37.840;2022-10-16T09:30:25;7.72;;;3.53;;
45909;SDS011;31622;55.416;37.840;2022-10-16T09:32:53;6.68;;;3.30;;
45909;SDS011;31622;55.416;37.840;2022-10-16T09:35:38;6.65;;;3.22;;
45909;SDS011;31622;55.416;37.840;2022-10-16T09:38:05;7.30;;;3.20;;
45909;SDS011;31622;55.416;37.840;2022-10-16T09:40:32;9.95;;;3.30;;
45909;SDS011;31622;55.416;37.840;2022-10-16T09:45:59;6.18;;;2.92;;
45909;SDS011;31622;55.416;37.840;2022-10-16T09:48:47;6.93;;;3.47;;
45909;SDS011;31622;55.416;37.840;2022-10-16T09:51:33;7.32;;;3.20;;
45909;SDS011;31622;55.416;37.840;2022-10-16T09:56:35;5.07;;;3.22;;
45909;SDS011;31622;55.416;37.840;2022-10-16T09:59:10;7.05;;;3.20;;
45909;SDS011;31622;55.416;37.840;2022-10-16T10:01:38;6.03;;;3.47;;
45909;SDS011;31622;55.416;37.840;2022-10-16T10:04:05;6.55;;;3.10;;
45909;SDS011;31622;55.416;37.840;2022-10-16T10:06:36;6.15;;;3.00;;
45909;SDS011;31622;55.416;37.840;2022-10-16T10:09:22;7.35;;;2.97;;
45909;SDS011;31622;55.416;37.840;2022-10-16T10:11:58;5.22;;;2.72;;
45909;SDS011;31622;55.416;37.840;2022-10-16T10:19:30;7.78;;;2.78;;
45909;SDS011;31622;55.416;37.840;2022-10-16T10:22:11;5.45;;;2.97;;
45909;SDS011;31622;55.416;37.840;2022-10-16T10:24:42;5.28;;;2.92;;
45909;SDS011;31622;55.416;37.840;2022-10-16T10:27:11;5.80;;;2.95;;
45909;SDS011;31622;55.416;37.840;2022-10-16T10:32:25;7.75;;;3.20;;
45909;SDS011;31622;55.416;37.840;2022-10-16T10:38:30;4.80;;;3.20;;
45909;SDS011;31622;55.416;37.840;2022-10-16T10:41:12;4.00;;;2.42;;
45909;SDS011;31622;55.416;37.840;2022-10-16T10:43:52;6.28;;;2.95;;
45909;SDS011;31622;55.416;37.840;2022-10-16T10:46:42;7.90;;;2.90;;
45909;SDS011;31622;55.416;37.840;2022-10-16T10:52:28;5.95;;;3.00;;
45909;SDS011;31622;55.416;37.840;2022-10-16T10:55:10;8.00;;;3.40;;
45909;SDS011;31622;55.416;37.840;2022-10-16T10:57:43;5.25;;;3.33;;
45909;SDS011;31622;55.416;37.840;2022-10-16T11:06:16;5.55;;;3.63;;
45909;SDS011;31622;55.416;37.840;2022-10-16T11:11:15;6.35;;;3.35;;
45909;SDS011;31622;55.416;37.840;2022-10-16T11:13:54;6.72;;;3.40;;
45909;SDS011;31622;55.416;37.840;2022-10-16T11:16:25;7.53;;;3.28;;
45909;SDS011;31622;55.416;37.840;2022-10-16T11:19:03;6.70;;;3.20;;
45909;SDS011;31622;55.416;37.840;2022-10-16T11:21:30;6.80;;;3.05;;
45909;SDS011;31622;55.416;37.840;2022-10-16T11:24:05;6.50;;;2.90;;
45909;SDS011;31622;55.416;37.840;2022-10-16T11:26:35;5.65;;;2.63;;
45909;SDS011;31622;55.416;37.840;2022-10-16T11:29:05;9.32;;;3.58;;
45909;SDS011;31622;55.416;37.840;2022-10-16T11:31:48;6.40;;;2.80;;
45909;SDS011;31622;55.416;37.840;2022-10-16T11:37:17;5.45;;;2.80;;
45909;SDS011;31622;55.416;37.840;2022-10-16T11:39:46;5.63;;;3.00;;
45909;SDS011;31622;55.416;37.840;2022-10-16T11:42:32;3.72;;;2.90;;
45909;SDS011;31622;55.416;37.840;2022-10-16T11:47:35;4.93;;;2.88;;
45909;SDS011;31622;55.416;37.840;2022-10-16T11:50:12;3.67;;;2.70;;
45909;SDS011;31622;55.416;37.840;2022-10-16T11:55:41;5.78;;;2.90;;
45909;SDS011;31622;55.416;37.840;2022-10-16T11:58:12;4.22;;;2.60;;
45909;SDS011;31622;55.416;37.840;2022-10-16T12:00:53;7.50;;;2.67;;
45909;SDS011;31622;55.416;37.840;2022-10-16T12:06:02;4.45;;;2.33;;
45909;SDS011;31622;55.416;37.840;2022-10-16T12:08:46;7.25;;;2.75;;
45909;SDS011;31622;55.416;37.840;2022-10-16T12:14:18;3.35;;;2.08;;
45909;SDS011;31622;55.416;37.840;2022-10-16T12:19:26;9.77;;;2.42;;
45909;SDS011;31622;55.416;37.840;2022-10-16T12:21:54;8.38;;;2.80;;
45909;SDS011;31622;55.416;37.840;2022-10-16T12:24:38;7.18;;;2.20;;
45909;SDS011;31622;55.416;37.840;2022-10-16T12:27:27;4.70;;;2.38;;
45909;SDS011;31622;55.416;37.840;2022-10-16T12:30:00;3.83;;;2.65;;
45909;SDS011;31622;55.416;37.840;2022-10-16T12:32:35;6.65;;;2.08;;
45909;SDS011;31622;55.416;37.840;2022-10-16T12:35:02;4.60;;;2.10;;
45909;SDS011;31622;55.416;37.840;2022-10-16T12:37:33;6.45;;;1.92;;
45909;SDS011;31622;55.416;37.840;2022-10-16T12:39:59;6.53;;;2.72;;
45909;SDS011;31622;55.416;37.840;2022-10-16T12:42:37;3.92;;;1.90;;
45909;SDS011;31622;55.416;37.840;2022-10-16T12:45:13;3.33;;;1.90;;
45909;SDS011;31622;55.416;37.840;2022-10-16T12:47:56;3.90;;;1.90;;
45909;SDS011;31622;55.416;37.840;2022-10-16T12:50:23;4.70;;;2.10;;
45909;SDS011;31622;55.416;37.840;2022-10-16T12:52:49;5.63;;;2.30;;
45909;SDS011;31622;55.416;37.840;2022-10-16T12:55:16;7.15;;;1.95;;
45909;SDS011;31622;55.416;37.840;2022-10-16T13:03:31;3.53;;;1.80;;
45909;SDS011;31622;55.416;37.840;2022-10-16T13:28:11;4.28;;;1.92;;
45909;SDS011;31622;55.416;37.840;2022-10-16T13:30:41;2.85;;;1.55;;
45909;SDS011;31622;55.416;37.840;2022-10-16T13:33:19;5.63;;;1.75;;
45909;SDS011;31622;55.416;37.840;2022-10-16T13:35:50;2.90;;;1.65;;
45909;SDS011;31622;55.416;37.840;2022-10-16T13:38:19;9.68;;;2.20;;
45909;SDS011;31622;55.416;37.840;2022-10-16T13:41:00;12.07;;;2.38;;
45909;SDS011;31622;55.416;37.840;2022-10-16T13:43:43;25.10;;;3.42;;
45909;SDS011;31622;55.416;37.840;2022-10-16T13:46:23;15.23;;;2.88;;
45909;SDS011;31622;55.416;37.840;2022-10-16T13:48:59;8.60;;;2.22;;
45909;SDS011;31622;55.416;37.840;2022-10-16T13:51:30;22.05;;;2.72;;
45909;SDS011;31622;55.416;37.840;2022-10-16T13:53:56;14.52;;;2.83;;
45909;SDS011;31622;55.416;37.840;2022-10-16T13:56:24;9.60;;;1.90;;
45909;SDS011;31622;55.416;37.840;2022-10-16T13:58:59;10.43;;;2.28;;
45909;SDS011;31622;55.416;37.840;2022-10-16T14:01:33;12.10;;;2.10;;
45909;SDS011;31622;55.416;37.840;2022-10-16T14:04:04;9.38;;;2.33;;
45909;SDS011;31622;55.416;37.840;2022-10-16T14:06:31;16.35;;;2.22;;
45909;SDS011;31622;55.416;37.840;2022-10-16T14:09:09;7.25;;;2.10;;
45909;SDS011;31622;55.416;37.840;2022-10-16T14:11:46;4.88;;;1.67;;
45909;SDS011;31622;55.416;37.840;2022-10-16T14:14:17;7.75;;;1.92;;
45909;SDS011;31622;55.416;37.840;2022-10-16T14:16:44;12.48;;;2.92;;
45909;SDS011;31622;55.416;37.840;2022-10-16T14:19:29;7.50;;;1.85;;
45909;SDS011;31622;55.416;37.840;2022-10-16T14:21:55;11.48;;;2.22;;
45909;SDS011;31622;55.416;37.840;2022-10-16T14:26:59;9.15;;;2.28;;
45909;SDS011;31622;55.416;37.840;2022-10-16T14:29:26;5.70;;;2.28;;
45909;SDS011;31622;55.416;37.840;2022-10-16T14:32:01;5.63;;;1.70;;
45909;SDS011;31622;55.416;37.840;2022-10-16T14:34:32;3.53;;;1.58;;
45909;SDS011;31622;55.416;37.840;2022-10-16T14:39:49;3.05;;;1.52;;
45909;SDS011;31622;55.416;37.840;2022-10-16T14:42:19;6.03;;;2.08;;
45909;SDS011;31622;55.416;37.840;2022-10-16T14:44:49;3.45;;;1.80;;
45909;SDS011;31622;55.416;37.840;2022-10-16T14:47:18;2.90;;;1.65;;
45909;SDS011;31622;55.416;37.840;2022-10-16T14:49:47;5.10;;;2.17;;
45909;SDS011;31622;55.416;37.840;2022-10-16T14:52:13;5.55;;;2.08;;
45909;SDS011;31622;55.416;37.840;2022-10-16T14:54:39;5.35;;;1.92;;
45909;SDS011;31622;55.416;37.840;2022-10-16T14:57:05;9.32;;;2.00;;
45909;SDS011;31622;55.416;37.840;2022-10-16T14:59:43;3.75;;;2.03;;
45909;SDS011;31622;55.416;37.840;2022-10-16T15:02:18;5.50;;;2.15;;
45909;SDS011;31622;55.416;37.840;2022-10-16T15:04:52;5.75;;;2.22;;
45909;SDS011;31622;55.416;37.840;2022-10-16T15:07:18;3.60;;;2.10;;
45909;SDS011;31622;55.416;37.840;2022-10-16T15:09:44;4.38;;;2.10;;
45909;SDS011;31622;55.416;37.840;2022-10-16T15:12:09;4.95;;;2.03;;
45909;SDS011;31622;55.416;37.840;2022-10-16T15:14:35;4.45;;;2.30;;
45909;SDS011;31622;55.416;37.840;2022-10-16T15:17:01;3.65;;;2.22;;
45909;SDS011;31622;55.416;37.840;2022-10-16T15:19:27;4.50;;;2.13;;
45909;SDS011;31622;55.416;37.840;2022-10-16T15:21:52;5.90;;;2.40;;
45909;SDS011;31622;55.416;37.840;2022-10-16T15:24:18;7.03;;;2.78;;
45909;SDS011;31622;55.416;37.840;2022-10-16T15:26:43;7.00;;;2.85;;
45909;SDS011;31622;55.416;37.840;2022-10-16T15:29:11;5.80;;;3.13;;
45909;SDS011;31622;55.416;37.840;2022-10-16T15:31:37;4.55;;;2.63;;
45909;SDS011;31622;55.416;37.840;2022-10-16T15:34:03;5.20;;;3.08;;
45909;SDS011;31622;55.416;37.840;2022-10-16T15:36:32;6.03;;;3.28;;
45909;SDS011;31622;55.416;37.840;2022-10-16T15:39:02;5.63;;;3.25;;
45909;SDS011;31622;55.416;37.840;2022-10-16T15:41:31;5.60;;;3.45;;
45909;SDS011;31622;55.416;37.840;2022-10-16T15:43:56;6.95;;;3.70;;
45909;SDS011;31622;55.416;37.840;2022-10-16T15:46:23;5.47;;;3.38;;
45909;SDS011;31622;55.416;37.840;2022-10-16T15:48:49;5.95;;;3.80;;
45909;SDS011;31622;55.416;37.840;2022-10-16T15:51:16;6.35;;;3.90;;
45909;SDS011;31622;55.416;37.840;2022-10-16T15:53:42;6.55;;;3.83;;
45909;SDS011;31622;55.416;37.840;2022-10-16T15:56:08;7.35;;;4.25;;
45909;SDS011;31622;55.416;37.840;2022-10-16T15:58:36;6.22;;;3.88;;
45909;SDS011;31622;55.416;37.840;2022-10-16T16:01:02;6.35;;;4.43;;
45909;SDS011;31622;55.416;37.840;2022-10-16T16:03:29;8.18;;;4.28;;
45909;SDS011;31622;55.416;37.840;2022-10-16T16:05:55;9.25;;;4.65;;
45909;SDS011;31622;55.416;37.840;2022-10-16T16:08:21;8.02;;;4.38;;
45909;SDS011;31622;55.416;37.840;2022-10-16T16:11:00;8.80;;;5.07;;
45909;SDS011;31622;55.416;37.840;2022-10-16T16:13:26;14.70;;;4.80;;
45909;SDS011;31622;55.416;37.840;2022-10-16T16:15:52;11.38;;;5.28;;
45909;SDS011;31622;55.416;37.840;2022-10-16T16:18:18;11.38;;;4.68;;
45909;SDS011;31622;55.416;37.840;2022-10-16T16:20:44;10.30;;;4.75;;
45909;SDS011;31622;55.416;37.840;2022-10-16T16:23:10;8.40;;;4.75;;
45909;SDS011;31622;55.416;37.840;2022-10-16T16:25:35;11.88;;;4.78;;
45909;SDS011;31622;55.416;37.840;2022-10-16T16:28:01;9.90;;;4.20;;
45909;SDS011;31622;55.416;37.840;2022-10-16T16:30:27;9.30;;;4.78;;
45909;SDS011;31622;55.416;37.840;2022-10-16T16:32:52;8.43;;;4.13;;